sensor_id;sensor_type;location;lat;lon;timestamp;pressure;altitude;pressure_sealevel;temperature;humidity
64668;BME280;51077;42.716;23.344;2023-04-02T00:07:49;94479.03;;;11.22;49.17
64668;BME280;51077;42.716;23.344;2023-04-02T00:10:37;94475.78;;;11.24;48.87
64668;BME280;51077;42.716;23.344;2023-04-02T00:15:36;94479.78;;;11.23;48.88
64668;BME280;51077;42.716;23.344;2023-04-02T00:18:03;94475.56;;;11.22;49.09
64668;BME280;51077;42.716;23.344;2023-04-02T00:20:36;94476.84;;;11.21;48.92
64668;BME280;51077;42.716;23.344;2023-04-02T00:23:05;94484.13;;;11.18;49.03
64668;BME280;51077;42.716;23.344;2023-04-02T00:25:34;94492.19;;;11.16;49.33
64668;BME280;51077;42.716;23.344;2023-04-02T00:28:02;94483.94;;;11.16;49.15
64668;BME280;51077;42.716;23.344;2023-04-02T00:30:29;94473.81;;;11.11;49.18
64668;BME280;51077;42.716;23.344;2023-04-02T00:32:54;94469.94;;;11.06;49.51
64668;BME280;51077;42.716;23.344;2023-04-02T00:35:25;94473.00;;;11.03;49.51
64668;BME280;51077;42.716;23.344;2023-04-02T00:37:52;94475.34;;;10.99;49.72
64668;BME280;51077;42.716;23.344;2023-04-02T00:40:28;94477.69;;;10.95;49.63
64668;BME280;51077;42.716;23.344;2023-04-02T00:42:58;94475.06;;;10.89;49.92
64668;BME280;51077;42.716;23.344;2023-04-02T00:45:34;94480.16;;;10.85;50.07
64668;BME280;51077;42.716;23.344;2023-04-02T00:48:14;94473.50;;;10.80;49.92
64668;BME280;51077;42.716;23.344;2023-04-02T00:50:44;94473.59;;;10.75;50.20
64668;BME280;51077;42.716;23.344;2023-04-02T00:53:19;94473.59;;;10.75;50.09
64668;BME280;51077;42.716;23.344;2023-04-02T00:55:46;94470.44;;;10.71;50.35
64668;BME280;51077;42.716;23.344;2023-04-02T00:58:33;94469.72;;;10.70;50.45
64668;BME280;51077;42.716;23.344;2023-04-02T01:01:00;94473.31;;;10.65;50.62
64668;BME280;51077;42.716;23.344;2023-04-02T01:03:34;94476.38;;;10.62;50.74
64668;BME280;51077;42.716;23.344;2023-04-02T01:06:15;94475.47;;;10.59;50.54
64668;BME280;51077;42.716;23.344;2023-04-02T01:09:20;94488.22;;;10.56;50.76
64668;BME280;51077;42.716;23.344;2023-04-02T01:20:11;94480.44;;;10.47;51.14
64668;BME280;51077;42.716;23.344;2023-04-02T01:22:50;94488.66;;;10.47;51.00
64668;BME280;51077;42.716;23.344;2023-04-02T01:25:28;94488.47;;;10.45;51.10
64668;BME280;51077;42.716;23.344;2023-04-02T01:28:11;94491.00;;;10.43;51.06
64668;BME280;51077;42.716;23.344;2023-04-02T01:30:45;94492.03;;;10.40;51.38
64668;BME280;51077;42.716;23.344;2023-04-02T01:33:13;94499.53;;;10.40;51.25
64668;BME280;51077;42.716;23.344;2023-04-02T01:35:43;94496.06;;;10.39;51.24
64668;BME280;51077;42.716;23.344;2023-04-02T01:38:38;94492.56;;;10.39;51.32
64668;BME280;51077;42.716;23.344;2023-04-02T01:41:19;94486.34;;;10.38;51.24
64668;BME280;51077;42.716;23.344;2023-04-02T01:44:00;94490.56;;;10.39;51.35
64668;BME280;51077;42.716;23.344;2023-04-02T01:46:29;94486.34;;;10.38;51.28
64668;BME280;51077;42.716;23.344;2023-04-02T01:48:59;94486.91;;;10.37;51.32
64668;BME280;51077;42.716;23.344;2023-04-02T01:51:33;94480.88;;;10.38;51.25
64668;BME280;51077;42.716;23.344;2023-04-02T01:54:03;94479.59;;;10.39;51.24
64668;BME280;51077;42.716;23.344;2023-04-02T01:56:29;94478.13;;;10.38;51.39
64668;BME280;51077;42.716;23.344;2023-04-02T01:58:56;94476.84;;;10.39;51.36
64668;BME280;51077;42.716;23.344;2023-04-02T02:01:35;94477.06;;;10.41;51.27
64668;BME280;51077;42.716;23.344;2023-04-02T02:04:06;94473.91;;;10.37;51.33
64668;BME280;51077;42.716;23.344;2023-04-02T02:06:34;94471.91;;;10.38;51.36
64668;BME280;51077;42.716;23.344;2023-04-02T02:09:03;94463.69;;;10.38;51.41
64668;BME280;51077;42.716;23.344;2023-04-02T02:11:31;94468.63;;;10.39;51.51
64668;BME280;51077;42.716;23.344;2023-04-02T02:13:59;94472.66;;;10.38;51.31
64668;BME280;51077;42.716;23.344;2023-04-02T02:16:26;94472.66;;;10.38;51.52
64668;BME280;51077;42.716;23.344;2023-04-02T02:18:55;94472.84;;;10.40;51.39
64668;BME280;51077;42.716;23.344;2023-04-02T02:21:43;94465.16;;;10.39;51.32
64668;BME280;51077;42.716;23.344;2023-04-02T02:24:30;94461.66;;;10.38;51.44
64668;BME280;51077;42.716;23.344;2023-04-02T02:29:28;94472.22;;;10.34;51.50
64668;BME280;51077;42.716;23.344;2023-04-02T02:31:57;94477.16;;;10.36;51.42
64668;BME280;51077;42.716;23.344;2023-04-02T02:34:30;94484.88;;;10.37;51.33
64668;BME280;51077;42.716;23.344;2023-04-02T02:37:19;94483.63;;;10.38;51.30
64668;BME280;51077;42.716;23.344;2023-04-02T02:39:51;94482.34;;;10.39;51.40
64668;BME280;51077;42.716;23.344;2023-04-02T02:42:29;94480.88;;;10.38;51.44
64668;BME280;51077;42.716;23.344;2023-04-02T02:44:57;94474.66;;;10.38;51.28
64668;BME280;51077;42.716;23.344;2023-04-02T02:47:27;94477.59;;;10.40;51.36
64668;BME280;51077;42.716;23.344;2023-04-02T02:49:55;94485.31;;;10.41;51.16
64668;BME280;51077;42.716;23.344;2023-04-02T02:52:25;94481.06;;;10.40;51.38
64668;BME280;51077;42.716;23.344;2023-04-02T02:55:01;94479.59;;;10.39;51.42
64668;BME280;51077;42.716;23.344;2023-04-02T02:57:34;94488.03;;;10.41;51.30
64668;BME280;51077;42.716;23.344;2023-04-02T03:00:03;94484.03;;;10.42;51.23
64668;BME280;51077;42.716;23.344;2023-04-02T03:02:34;94493.53;;;10.41;51.23
64668;BME280;51077;42.716;23.344;2023-04-02T03:05:00;94491.31;;;10.40;51.42
64668;BME280;51077;42.716;23.344;2023-04-02T03:07:27;94486.91;;;10.37;51.38
64668;BME280;51077;42.716;23.344;2023-04-02T03:10:12;94490.38;;;10.37;51.36
64668;BME280;51077;42.716;23.344;2023-04-02T03:13:10;94490.16;;;10.35;51.37
64668;BME280;51077;42.716;23.344;2023-04-02T03:18:16;94491.00;;;10.30;51.56
64668;BME280;51077;42.716;23.344;2023-04-02T03:23:43;94495.56;;;10.27;51.58
64668;BME280;51077;42.716;23.344;2023-04-02T03:26:21;94490.59;;;10.26;51.37
64668;BME280;51077;42.716;23.344;2023-04-02T03:28:59;94493.09;;;10.24;51.63
64668;BME280;51077;42.716;23.344;2023-04-02T03:31:32;94492.88;;;10.22;51.49
64668;BME280;51077;42.716;23.344;2023-04-02T03:34:34;94482.44;;;10.20;51.47
64668;BME280;51077;42.716;23.344;2023-04-02T03:37:14;94489.94;;;10.20;51.49
64668;BME280;51077;42.716;23.344;2023-04-02T03:39:59;94499.22;;;10.17;51.57
64668;BME280;51077;42.716;23.344;2023-04-02T03:42:58;94502.50;;;10.15;51.77
64668;BME280;51077;42.716;23.344;2023-04-02T03:45:26;94505.53;;;10.12;51.72
64668;BME280;51077;42.716;23.344;2023-04-02T03:48:10;94501.31;;;10.11;51.79
64668;BME280;51077;42.716;23.344;2023-04-02T03:50:44;94498.91;;;10.07;51.77
64668;BME280;51077;42.716;23.344;2023-04-02T03:53:12;94501.22;;;10.03;51.59
64668;BME280;51077;42.716;23.344;2023-04-02T03:55:40;94500.47;;;10.02;51.72
64668;BME280;51077;42.716;23.344;2023-04-02T04:01:05;94502.38;;;9.94;51.92
64668;BME280;51077;42.716;23.344;2023-04-02T04:03:39;94507.63;;;9.92;51.96
64668;BME280;51077;42.716;23.344;2023-04-02T04:06:27;94511.63;;;9.91;52.02
64668;BME280;51077;42.716;23.344;2023-04-02T04:11:38;94520.38;;;9.90;52.03
64668;BME280;51077;42.716;23.344;2023-04-02T04:14:32;94516.69;;;9.87;52.19
64668;BME280;51077;42.716;23.344;2023-04-02T04:17:10;94521.97;;;9.85;52.03
64668;BME280;51077;42.716;23.344;2023-04-02T04:19:46;94521.75;;;9.83;52.16
64668;BME280;51077;42.716;23.344;2023-04-02T04:22:18;94528.50;;;9.82;52.08
64668;BME280;51077;42.716;23.344;2023-04-02T04:24:47;94533.97;;;9.82;51.88
64668;BME280;51077;42.716;23.344;2023-04-02T04:48:51;94536.25;;;10.23;51.36
64668;BME280;51077;42.716;23.344;2023-04-02T04:51:29;94546.69;;;10.38;50.93
64668;BME280;51077;42.716;23.344;2023-04-02T04:53:59;94541.31;;;10.59;50.95
64668;BME280;51077;42.716;23.344;2023-04-02T04:56:27;94547.81;;;10.82;50.13
64668;BME280;51077;42.716;23.344;2023-04-02T04:59:11;94543.66;;;11.02;49.83
64668;BME280;51077;42.716;23.344;2023-04-02T05:01:47;94549.94;;;11.24;49.24
64668;BME280;51077;42.716;23.344;2023-04-02T05:04:23;94549.88;;;11.37;49.18
64668;BME280;51077;42.716;23.344;2023-04-02T05:09:31;94556.75;;;11.65;48.34
64668;BME280;51077;42.716;23.344;2023-04-02T05:14:49;94552.63;;;11.79;48.31
64668;BME280;51077;42.716;23.344;2023-04-02T05:17:27;94555.59;;;11.81;48.09
64668;BME280;51077;42.716;23.344;2023-04-02T05:20:01;94557.63;;;11.80;48.31
64668;BME280;51077;42.716;23.344;2023-04-02T05:22:49;94555.31;;;11.85;48.54
64668;BME280;51077;42.716;23.344;2023-04-02T05:25:25;94563.19;;;11.88;48.29
64668;BME280;51077;42.716;23.344;2023-04-02T05:28:11;94561.97;;;11.97;48.39
64668;BME280;51077;42.716;23.344;2023-04-02T05:33:18;94559.75;;;12.16;48.14
64668;BME280;51077;42.716;23.344;2023-04-02T05:35:47;94567.38;;;12.31;47.98
64668;BME280;51077;42.716;23.344;2023-04-02T05:38:20;94566.19;;;12.47;47.79
64668;BME280;51077;42.716;23.344;2023-04-02T05:40:50;94567.94;;;12.66;47.21
64668;BME280;51077;42.716;23.344;2023-04-02T05:43:19;94574.28;;;12.81;47.02
64668;BME280;51077;42.716;23.344;2023-04-02T05:45:53;94573.41;;;12.94;46.92
64668;BME280;51077;42.716;23.344;2023-04-02T05:48:37;94572.34;;;13.05;47.93
64668;BME280;51077;42.716;23.344;2023-04-02T05:51:08;94572.22;;;13.18;47.73
64668;BME280;51077;42.716;23.344;2023-04-02T05:53:39;94571.94;;;13.37;47.27
64668;BME280;51077;42.716;23.344;2023-04-02T05:56:22;94584.13;;;13.57;46.89
64668;BME280;51077;42.716;23.344;2023-04-02T05:58:55;94584.88;;;13.73;46.57
64668;BME280;51077;42.716;23.344;2023-04-02T06:01:47;94581.25;;;13.93;46.30
64668;BME280;51077;42.716;23.344;2023-04-02T06:04:30;94585.47;;;14.09;45.73
64668;BME280;51077;42.716;23.344;2023-04-02T06:07:04;94578.84;;;14.28;45.63
64668;BME280;51077;42.716;23.344;2023-04-02T06:09:54;94579.75;;;14.46;45.37
64668;BME280;51077;42.716;23.344;2023-04-02T06:12:30;94575.16;;;14.64;45.09
64668;BME280;51077;42.716;23.344;2023-04-02T06:14:57;94581.34;;;14.79;44.89
64668;BME280;51077;42.716;23.344;2023-04-02T06:17:25;94584.25;;;14.97;44.51
64668;BME280;51077;42.716;23.344;2023-04-02T06:19:52;94589.91;;;15.14;44.28
64668;BME280;51077;42.716;23.344;2023-04-02T06:22:30;94584.09;;;15.35;43.98
64668;BME280;51077;42.716;23.344;2023-04-02T06:25:05;94586.59;;;15.56;43.57
64668;BME280;51077;42.716;23.344;2023-04-02T06:27:34;94593.88;;;15.76;43.54
64668;BME280;51077;42.716;23.344;2023-04-02T06:30:02;94583.38;;;16.00;43.19
64668;BME280;51077;42.716;23.344;2023-04-02T06:32:30;94582.88;;;16.19;42.72
64668;BME280;51077;42.716;23.344;2023-04-02T06:34:56;94590.09;;;16.39;42.81
64668;BME280;51077;42.716;23.344;2023-04-02T06:37:36;94585.50;;;16.59;42.38
64668;BME280;51077;42.716;23.344;2023-04-02T06:43:07;94580.53;;;17.09;41.69
64668;BME280;51077;42.716;23.344;2023-04-02T06:45:40;94583.22;;;17.34;41.33
64668;BME280;51077;42.716;23.344;2023-04-02T06:48:17;94592.88;;;17.61;40.72
64668;BME280;51077;42.716;23.344;2023-04-02T06:51:04;94594.94;;;17.87;40.27
64668;BME280;51077;42.716;23.344;2023-04-02T06:53:36;94596.94;;;18.14;39.94
64668;BME280;51077;42.716;23.344;2023-04-02T06:56:12;94591.94;;;18.39;39.56
64668;BME280;51077;42.716;23.344;2023-04-02T06:58:41;94591.69;;;18.64;39.23
64668;BME280;51077;42.716;23.344;2023-04-02T07:01:14;94601.28;;;18.90;38.89
64668;BME280;51077;42.716;23.344;2023-04-02T07:03:41;94594.38;;;19.11;38.49
64668;BME280;51077;42.716;23.344;2023-04-02T07:06:13;94598.63;;;19.41;38.02
64668;BME280;51077;42.716;23.344;2023-04-02T07:08:39;94607.28;;;19.64;37.67
64668;BME280;51077;42.716;23.344;2023-04-02T07:11:04;94603.84;;;19.85;37.21
64668;BME280;51077;42.716;23.344;2023-04-02T07:13:30;94608.66;;;20.04;36.90
64668;BME280;51077;42.716;23.344;2023-04-02T07:15:55;94612.84;;;20.24;36.53
64668;BME280;51077;42.716;23.344;2023-04-02T07:18:31;94611.88;;;20.41;36.31
64668;BME280;51077;42.716;23.344;2023-04-02T07:20:58;94608.88;;;20.58;35.89
64668;BME280;51077;42.716;23.344;2023-04-02T07:23:24;94606.56;;;20.76;35.65
64668;BME280;51077;42.716;23.344;2023-04-02T07:25:52;94619.69;;;20.95;35.53
64668;BME280;51077;42.716;23.344;2023-04-02T07:28:18;94610.88;;;21.11;35.42
64668;BME280;51077;42.716;23.344;2023-04-02T07:30:44;94609.16;;;21.27;35.01
64668;BME280;51077;42.716;23.344;2023-04-02T07:33:17;94616.19;;;21.49;34.88
64668;BME280;51077;42.716;23.344;2023-04-02T07:35:43;94618.69;;;21.67;34.53
64668;BME280;51077;42.716;23.344;2023-04-02T07:38:09;94615.22;;;21.90;33.88
64668;BME280;51077;42.716;23.344;2023-04-02T07:40:35;94615.88;;;22.12;33.70
64668;BME280;51077;42.716;23.344;2023-04-02T07:43:00;94615.78;;;22.33;33.17
64668;BME280;51077;42.716;23.344;2023-04-02T07:45:26;94614.94;;;22.54;33.02
64668;BME280;51077;42.716;23.344;2023-04-02T07:47:52;94611.28;;;22.75;32.43
64668;BME280;51077;42.716;23.344;2023-04-02T07:50:18;94615.91;;;22.94;32.27
64668;BME280;51077;42.716;23.344;2023-04-02T07:52:43;94617.22;;;23.16;32.14
64668;BME280;51077;42.716;23.344;2023-04-02T07:55:10;94607.28;;;23.39;31.20
64668;BME280;51077;42.716;23.344;2023-04-02T07:57:53;94612.69;;;23.60;30.93
64668;BME280;51077;42.716;23.344;2023-04-02T08:00:19;94614.66;;;23.83;30.63
64668;BME280;51077;42.716;23.344;2023-04-02T08:02:45;94617.28;;;23.93;30.43
64668;BME280;51077;42.716;23.344;2023-04-02T08:05:12;94608.88;;;23.93;30.27
64668;BME280;51077;42.716;23.344;2023-04-02T08:07:37;94614.50;;;24.06;30.15
64668;BME280;51077;42.716;23.344;2023-04-02T08:10:04;94620.56;;;24.15;29.82
64668;BME280;51077;42.716;23.344;2023-04-02T08:12:30;94619.78;;;24.26;29.66
64668;BME280;51077;42.716;23.344;2023-04-02T08:14:56;94629.69;;;24.41;29.74
64668;BME280;51077;42.716;23.344;2023-04-02T08:17:21;94616.59;;;24.59;29.34
64668;BME280;51077;42.716;23.344;2023-04-02T08:19:47;94622.63;;;24.81;28.46
64668;BME280;51077;42.716;23.344;2023-04-02T08:22:12;94624.53;;;25.04;28.26
64668;BME280;51077;42.716;23.344;2023-04-02T08:24:38;94624.22;;;25.25;28.18
64668;BME280;51077;42.716;23.344;2023-04-02T08:27:03;94612.78;;;25.51;27.92
64668;BME280;51077;42.716;23.344;2023-04-02T08:29:29;94619.72;;;25.77;28.07
64668;BME280;51077;42.716;23.344;2023-04-02T08:31:59;94622.75;;;25.97;27.78
64668;BME280;51077;42.716;23.344;2023-04-02T08:34:26;94617.41;;;26.03;27.88
64668;BME280;51077;42.716;23.344;2023-04-02T08:36:56;94629.50;;;26.22;27.54
64668;BME280;51077;42.716;23.344;2023-04-02T08:39:22;94625.00;;;26.46;27.03
64668;BME280;51077;42.716;23.344;2023-04-02T08:47:01;94634.38;;;27.16;26.39
64668;BME280;51077;42.716;23.344;2023-04-02T08:52:02;94634.06;;;27.60;25.77
64668;BME280;51077;42.716;23.344;2023-04-02T08:54:32;94625.06;;;27.81;25.40
64668;BME280;51077;42.716;23.344;2023-04-02T08:57:05;94628.63;;;27.99;25.50
64668;BME280;51077;42.716;23.344;2023-04-02T08:59:34;94627.94;;;28.19;24.68
64668;BME280;51077;42.716;23.344;2023-04-02T09:02:12;94623.53;;;28.14;23.86
64668;BME280;51077;42.716;23.344;2023-04-02T09:04:45;94626.94;;;27.92;24.47
64668;BME280;51077;42.716;23.344;2023-04-02T09:07:12;94622.03;;;27.75;24.54
64668;BME280;51077;42.716;23.344;2023-04-02T09:09:41;94626.81;;;27.54;24.65
64668;BME280;51077;42.716;23.344;2023-04-02T09:12:30;94621.41;;;27.43;24.60
64668;BME280;51077;42.716;23.344;2023-04-02T09:17:42;94613.09;;;27.47;25.01
64668;BME280;51077;42.716;23.344;2023-04-02T09:22:48;94622.44;;;27.51;24.09
64668;BME280;51077;42.716;23.344;2023-04-02T09:25:21;94620.50;;;27.38;23.89
64668;BME280;51077;42.716;23.344;2023-04-02T09:27:50;94619.91;;;27.24;24.26
64668;BME280;51077;42.716;23.344;2023-04-02T09:30:26;94609.41;;;27.09;24.39
64668;BME280;51077;42.716;23.344;2023-04-02T09:32:57;94619.97;;;26.92;24.30
64668;BME280;51077;42.716;23.344;2023-04-02T09:35:26;94615.72;;;26.75;24.36
64668;BME280;51077;42.716;23.344;2023-04-02T09:38:16;94614.75;;;26.53;24.63
64668;BME280;51077;42.716;23.344;2023-04-02T09:43:15;94605.00;;;26.09;25.55
64668;BME280;51077;42.716;23.344;2023-04-02T09:45:42;94609.22;;;25.94;25.21
64668;BME280;51077;42.716;23.344;2023-04-02T09:48:36;94604.22;;;25.92;25.52
64668;BME280;51077;42.716;23.344;2023-04-02T09:53:37;94608.22;;;25.87;25.41
64668;BME280;51077;42.716;23.344;2023-04-02T09:58:35;94603.09;;;25.54;25.58
64668;BME280;51077;42.716;23.344;2023-04-02T10:01:00;94596.06;;;25.39;25.66
64668;BME280;51077;42.716;23.344;2023-04-02T10:03:33;94598.19;;;25.25;25.52
64668;BME280;51077;42.716;23.344;2023-04-02T10:08:32;94601.19;;;25.29;25.75
64668;BME280;51077;42.716;23.344;2023-04-02T10:11:03;94600.13;;;25.36;25.20
64668;BME280;51077;42.716;23.344;2023-04-02T10:13:59;94602.94;;;25.36;25.50
64668;BME280;51077;42.716;23.344;2023-04-02T10:16:43;94586.81;;;25.37;25.80
64668;BME280;51077;42.716;23.344;2023-04-02T10:19:21;94590.16;;;25.33;25.22
64668;BME280;51077;42.716;23.344;2023-04-02T10:21:48;94584.88;;;25.25;25.19
64668;BME280;51077;42.716;23.344;2023-04-02T10:24:16;94583.97;;;25.21;25.51
64668;BME280;51077;42.716;23.344;2023-04-02T10:27:15;94573.84;;;25.29;25.57
64668;BME280;51077;42.716;23.344;2023-04-02T10:32:47;94580.84;;;26.03;25.04
64668;BME280;51077;42.716;23.344;2023-04-02T10:35:56;94584.59;;;26.55;24.37
64668;BME280;51077;42.716;23.344;2023-04-02T10:49:59;94572.28;;;26.96;23.91
64668;BME280;51077;42.716;23.344;2023-04-02T10:52:26;94566.53;;;26.94;23.45
64668;BME280;51077;42.716;23.344;2023-04-02T11:11:54;94557.28;;;28.94;21.60
64668;BME280;51077;42.716;23.344;2023-04-02T11:14:30;94560.38;;;29.22;21.30
64668;BME280;51077;42.716;23.344;2023-04-02T11:16:58;94554.63;;;29.62;21.16
64668;BME280;51077;42.716;23.344;2023-04-02T11:19:27;94560.53;;;29.94;20.81
64668;BME280;51077;42.716;23.344;2023-04-02T11:22:03;94550.84;;;30.23;20.05
64668;BME280;51077;42.716;23.344;2023-04-02T11:24:43;94565.81;;;30.52;19.78
64668;BME280;51077;42.716;23.344;2023-04-02T11:29:48;94551.84;;;30.84;19.49
64668;BME280;51077;42.716;23.344;2023-04-02T11:37:43;94542.13;;;31.19;19.04
64668;BME280;51077;42.716;23.344;2023-04-02T11:42:46;94535.75;;;31.21;19.34
64668;BME280;51077;42.716;23.344;2023-04-02T11:50:41;94536.19;;;31.09;19.41
64668;BME280;51077;42.716;23.344;2023-04-02T11:55:43;94528.22;;;31.60;18.64
64668;BME280;51077;42.716;23.344;2023-04-02T11:58:24;94535.00;;;31.76;19.03
64668;BME280;51077;42.716;23.344;2023-04-02T12:12:15;94536.81;;;30.53;19.80
64668;BME280;51077;42.716;23.344;2023-04-02T12:14:46;94527.31;;;30.43;19.50
64668;BME280;51077;42.716;23.344;2023-04-02T12:19:52;94519.59;;;30.71;20.33
64668;BME280;51077;42.716;23.344;2023-04-02T12:22:24;94511.91;;;31.02;20.20
64668;BME280;51077;42.716;23.344;2023-04-02T12:24:54;94521.56;;;31.19;19.84
64668;BME280;51077;42.716;23.344;2023-04-02T12:27:24;94525.75;;;31.76;19.31
64668;BME280;51077;42.716;23.344;2023-04-02T12:30:08;94522.41;;;32.16;18.86
64668;BME280;51077;42.716;23.344;2023-04-02T12:32:37;94522.75;;;32.32;18.25
64668;BME280;51077;42.716;23.344;2023-04-02T12:35:03;94524.25;;;32.37;18.28
64668;BME280;51077;42.716;23.344;2023-04-02T12:37:31;94522.94;;;32.40;18.10
64668;BME280;51077;42.716;23.344;2023-04-02T12:40:02;94516.03;;;32.51;17.94
64668;BME280;51077;42.716;23.344;2023-04-02T12:42:35;94514.00;;;32.56;17.96
64668;BME280;51077;42.716;23.344;2023-04-02T12:45:03;94514.38;;;32.38;18.34
64668;BME280;51077;42.716;23.344;2023-04-02T12:47:29;94514.19;;;31.96;18.20
64668;BME280;51077;42.716;23.344;2023-04-02T12:49:57;94514.38;;;31.74;18.72
64668;BME280;51077;42.716;23.344;2023-04-02T12:52:24;94506.53;;;31.72;18.93
64668;BME280;51077;42.716;23.344;2023-04-02T12:55:00;94502.88;;;31.68;19.28
64668;BME280;51077;42.716;23.344;2023-04-02T13:00:00;94504.00;;;31.54;20.26
64668;BME280;51077;42.716;23.344;2023-04-02T13:02:41;94505.31;;;31.21;20.40
64668;BME280;51077;42.716;23.344;2023-04-02T13:05:09;94498.00;;;30.84;20.57
64668;BME280;51077;42.716;23.344;2023-04-02T13:07:35;94506.16;;;30.46;21.20
64668;BME280;51077;42.716;23.344;2023-04-02T13:10:17;94495.06;;;30.28;21.45
64668;BME280;51077;42.716;23.344;2023-04-02T13:12:46;94492.00;;;29.96;21.47
64668;BME280;51077;42.716;23.344;2023-04-02T13:15:37;94497.50;;;29.68;21.43
64668;BME280;51077;42.716;23.344;2023-04-02T13:18:20;94494.16;;;29.51;21.95
64668;BME280;51077;42.716;23.344;2023-04-02T13:20:56;94498.25;;;29.46;22.08
64668;BME280;51077;42.716;23.344;2023-04-02T13:23:30;94488.06;;;29.37;21.40
64668;BME280;51077;42.716;23.344;2023-04-02T13:26:10;94493.53;;;29.31;21.86
64668;BME280;51077;42.716;23.344;2023-04-02T13:28:41;94492.75;;;29.07;22.41
64668;BME280;51077;42.716;23.344;2023-04-02T13:31:14;94474.00;;;28.95;22.27
64668;BME280;51077;42.716;23.344;2023-04-02T13:33:40;94480.34;;;28.74;22.70
64668;BME280;51077;42.716;23.344;2023-04-02T13:36:17;94479.94;;;28.62;22.47
64668;BME280;51077;42.716;23.344;2023-04-02T13:38:42;94470.19;;;28.45;22.54
64668;BME280;51077;42.716;23.344;2023-04-02T13:41:26;94481.66;;;28.31;22.73
64668;BME280;51077;42.716;23.344;2023-04-02T13:43:57;94470.00;;;28.21;22.78
64668;BME280;51077;42.716;23.344;2023-04-02T13:46:32;94472.41;;;28.09;22.79
64668;BME280;51077;42.716;23.344;2023-04-02T13:48:58;94469.19;;;27.98;22.37
64668;BME280;51077;42.716;23.344;2023-04-02T13:51:34;94472.31;;;27.87;22.43
64668;BME280;51077;42.716;23.344;2023-04-02T13:54:00;94480.03;;;27.68;22.70
64668;BME280;51077;42.716;23.344;2023-04-02T13:56:29;94466.78;;;27.53;22.91
64668;BME280;51077;42.716;23.344;2023-04-02T13:58:55;94464.00;;;27.35;23.13
64668;BME280;51077;42.716;23.344;2023-04-02T14:01:22;94473.25;;;27.20;23.23
64668;BME280;51077;42.716;23.344;2023-04-02T14:03:50;94468.97;;;27.01;23.33
64668;BME280;51077;42.716;23.344;2023-04-02T14:09:24;94471.31;;;26.73;23.36
64668;BME280;51077;42.716;23.344;2023-04-02T14:26:15;94467.28;;;25.95;23.25
64668;BME280;51077;42.716;23.344;2023-04-02T14:29:00;94460.94;;;25.78;23.48
64668;BME280;51077;42.716;23.344;2023-04-02T14:31:35;94459.63;;;25.66;23.16
64668;BME280;51077;42.716;23.344;2023-04-02T14:39:44;94459.84;;;25.24;23.51
64668;BME280;51077;42.716;23.344;2023-04-02T14:42:17;94453.75;;;25.14;23.64
64668;BME280;51077;42.716;23.344;2023-04-02T14:44:56;94459.41;;;25.00;23.61
64668;BME280;51077;42.716;23.344;2023-04-02T14:47:34;94457.44;;;24.89;23.54
64668;BME280;51077;42.716;23.344;2023-04-02T14:50:12;94455.50;;;24.78;23.51
64668;BME280;51077;42.716;23.344;2023-04-02T14:52:43;94461.88;;;24.65;23.60
64668;BME280;51077;42.716;23.344;2023-04-02T14:55:59;94461.16;;;24.50;23.52
64668;BME280;51077;42.716;23.344;2023-04-02T14:58:23;94451.28;;;24.36;23.42
64668;BME280;51077;42.716;23.344;2023-04-02T15:00:57;94473.22;;;24.25;23.84
64668;BME280;51077;42.716;23.344;2023-04-02T15:03:28;94468.44;;;24.14;23.78
64668;BME280;51077;42.716;23.344;2023-04-02T15:06:05;94472.69;;;24.01;23.69
64668;BME280;51077;42.716;23.344;2023-04-02T15:08:37;94468.66;;;23.91;23.84
64668;BME280;51077;42.716;23.344;2023-04-02T15:11:18;94475.06;;;23.79;23.96
64668;BME280;51077;42.716;23.344;2023-04-02T15:13:53;94473.81;;;23.69;23.95
64668;BME280;51077;42.716;23.344;2023-04-02T15:16:23;94474.66;;;23.59;24.02
64668;BME280;51077;42.716;23.344;2023-04-02T15:18:58;94478.38;;;23.50;23.87
64668;BME280;51077;42.716;23.344;2023-04-02T15:29:54;94491.28;;;23.04;24.42
64668;BME280;51077;42.716;23.344;2023-04-02T15:37:50;94478.47;;;22.76;24.38
64668;BME280;51077;42.716;23.344;2023-04-02T15:40:49;94482.03;;;22.65;24.72
64668;BME280;51077;42.716;23.344;2023-04-02T15:43:40;94480.00;;;22.53;24.55
64668;BME280;51077;42.716;23.344;2023-04-02T15:49:12;94476.38;;;22.27;24.65
64668;BME280;51077;42.716;23.344;2023-04-02T16:00:27;94484.53;;;21.88;25.15
64668;BME280;51077;42.716;23.344;2023-04-02T16:08:25;94493.13;;;21.57;24.96
64668;BME280;51077;42.716;23.344;2023-04-02T16:10:53;94493.22;;;21.47;25.18
64668;BME280;51077;42.716;23.344;2023-04-02T16:13:30;94494.06;;;21.38;25.27
64668;BME280;51077;42.716;23.344;2023-04-02T16:16:06;94500.56;;;21.31;25.02
64668;BME280;51077;42.716;23.344;2023-04-02T16:21:28;94497.22;;;21.11;25.54
64668;BME280;51077;42.716;23.344;2023-04-02T16:23:56;94498.03;;;21.02;25.46
64668;BME280;51077;42.716;23.344;2023-04-02T16:27:16;94497.28;;;20.90;25.60
64668;BME280;51077;42.716;23.344;2023-04-02T16:30:18;94498.69;;;20.79;25.65
64668;BME280;51077;42.716;23.344;2023-04-02T16:36:03;94500.88;;;20.59;25.72
64668;BME280;51077;42.716;23.344;2023-04-02T16:52:28;94514.13;;;19.96;26.06
64668;BME280;51077;42.716;23.344;2023-04-02T17:00:49;94517.72;;;19.68;26.33
64668;BME280;51077;42.716;23.344;2023-04-02T17:06:04;94524.78;;;19.49;26.42
64668;BME280;51077;42.716;23.344;2023-04-02T17:08:41;94528.31;;;19.40;26.58
64668;BME280;51077;42.716;23.344;2023-04-02T17:11:09;94534.06;;;19.32;26.70
64668;BME280;51077;42.716;23.344;2023-04-02T17:18:37;94541.41;;;19.08;27.00
64668;BME280;51077;42.716;23.344;2023-04-02T17:21:06;94542.28;;;19.01;27.18
64668;BME280;51077;42.716;23.344;2023-04-02T17:24:06;94551.53;;;18.94;27.14